createdAt,value
2019-02-19T00:00:32.739Z,64.46
2019-02-19T00:01:32.755Z,64.18
2019-02-19T00:02:32.707Z,64.46
2019-02-19T00:03:32.707Z,64.37
2019-02-19T00:04:32.712Z,64.18
2019-02-19T00:05:32.741Z,64.46
2019-02-19T00:06:32.716Z,64.46
2019-02-19T00:07:32.719Z,64.37
2019-02-19T00:08:32.781Z,64.46
2019-02-19T00:09:32.736Z,64.27
2019-02-19T00:10:32.736Z,64.46
2019-02-19T00:11:32.734Z,64.46
2019-02-19T00:12:32.730Z,64.46
2019-02-19T00:13:32.743Z,64.46
2019-02-19T00:14:32.767Z,64.27
2019-02-19T00:15:32.764Z,64.46
2019-02-19T00:16:32.777Z,64.84
2019-02-19T00:17:32.764Z,64.37
2019-02-19T00:18:32.764Z,64.46
2019-02-19T00:19:32.777Z,64.46
2019-02-19T00:20:32.790Z,64.56
2019-02-19T00:21:32.811Z,64.46
2019-02-19T00:22:32.809Z,64.46
2019-02-19T00:23:32.804Z,64.46
2019-02-19T00:24:32.820Z,64.65
2019-02-19T00:25:32.780Z,64.37
2019-02-19T00:26:32.794Z,64.56
2019-02-19T00:27:32.828Z,64.56
2019-02-19T00:28:32.796Z,64.27
2019-02-19T00:29:32.811Z,64.27
2019-02-19T00:30:32.839Z,64.27
2019-02-19T00:31:32.807Z,64.37
2019-02-19T00:32:32.815Z,64.37
2019-02-19T00:33:32.839Z,64.37
2019-02-19T00:34:32.826Z,64.94
2019-02-19T00:35:32.891Z,64.65
2019-02-19T00:36:32.868Z,64.27
2019-02-19T00:37:32.846Z,64.65
2019-02-19T00:38:32.841Z,64.56
2019-02-19T00:39:32.849Z,64.84
2019-02-19T00:40:32.849Z,64.65
2019-02-19T00:41:32.900Z,64.27
2019-02-19T00:42:32.857Z,64.65
2019-02-19T00:43:32.880Z,64.65
2019-02-19T00:44:32.872Z,64.37
2019-02-19T00:45:32.876Z,64.18
2019-02-19T00:46:32.876Z,64.46
2019-02-19T00:47:32.903Z,64.75
2019-02-19T00:48:32.917Z,64.37
2019-02-19T00:49:32.884Z,64.08
2019-02-19T00:50:32.890Z,64.65
2019-02-19T00:51:32.904Z,64.65
2019-02-19T00:52:32.910Z,64.65
2019-02-19T00:53:32.916Z,64.37
2019-02-19T00:54:32.916Z,64.65
2019-02-19T00:55:32.920Z,64.65
2019-02-19T00:56:32.933Z,64.65
2019-02-19T00:57:32.918Z,64.65
2019-02-19T00:58:32.944Z,64.37
2019-02-19T00:59:32.918Z,64.56
2019-02-19T01:00:32.926Z,64.84
2019-02-19T01:01:32.927Z,64.94
2019-02-19T01:02:32.951Z,65.32
2019-02-19T01:03:32.977Z,65.03
2019-02-19T01:04:32.943Z,65.13
2019-02-19T01:05:32.961Z,65.51
2019-02-19T01:06:32.964Z,65.22
2019-02-19T01:07:32.968Z,65.32
2019-02-19T01:08:32.971Z,65.32
2019-02-19T01:09:33.013Z,65.60
2019-02-19T01:10:32.991Z,65.22
2019-02-19T01:11:32.972Z,65.13
2019-02-19T01:12:32.964Z,65.41
2019-02-19T01:13:32.971Z,65.41
2019-02-19T01:14:32.985Z,64.94
2019-02-19T01:15:33.022Z,65.03
2019-02-19T01:16:32.984Z,65.51
2019-02-19T01:17:32.983Z,65.13
2019-02-19T01:18:32.991Z,65.51
2019-02-19T01:19:32.998Z,65.41
2019-02-19T01:20:33.014Z,65.03
2019-02-19T01:21:32.993Z,64.56
2019-02-19T01:22:33.011Z,64.94
2019-02-19T01:23:33.027Z,64.65
2019-02-19T01:24:33.003Z,64.84
2019-02-19T01:25:33.041Z,64.65
2019-02-19T01:26:33.005Z,64.65
2019-02-19T01:27:33.034Z,64.94
2019-02-19T01:28:33.027Z,64.94
2019-02-19T01:29:33.047Z,64.94
2019-02-19T01:30:33.114Z,64.65
2019-02-19T01:31:33.040Z,64.75
2019-02-19T01:32:33.046Z,64.56
2019-02-19T01:33:33.037Z,64.56
2019-02-19T01:34:33.037Z,64.75
2019-02-19T01:35:33.066Z,64.84
2019-02-19T01:36:33.082Z,64.65
2019-02-19T01:37:33.076Z,64.65
2019-02-19T01:38:33.078Z,64.65
2019-02-19T01:39:33.073Z,64.65
2019-02-19T01:40:33.080Z,64.56
2019-02-19T01:41:33.138Z,64.65
2019-02-19T01:42:33.091Z,64.56
2019-02-19T01:43:33.079Z,64.75
2019-02-19T01:44:33.116Z,64.84
2019-02-19T01:45:34.326Z,64.75
2019-02-19T01:46:33.109Z,64.65
2019-02-19T01:47:33.117Z,64.94
2019-02-19T01:48:33.106Z,64.65
2019-02-19T01:49:33.099Z,64.84
2019-02-19T01:50:33.117Z,65.13
2019-02-19T01:51:33.114Z,65.32
2019-02-19T01:52:33.140Z,65.32
2019-02-19T01:53:33.135Z,65.22
2019-02-19T01:54:33.136Z,65.13
2019-02-19T01:55:33.136Z,65.22
2019-02-19T01:56:33.144Z,65.41
2019-02-19T01:57:33.160Z,65.67
2019-02-19T01:58:33.143Z,64.75
2019-02-19T01:59:33.135Z,65.03
2019-02-19T02:00:33.151Z,65.51
2019-02-19T02:01:33.148Z,65.03
2019-02-19T02:02:33.183Z,65.22
2019-02-19T02:03:33.222Z,65.03
2019-02-19T02:04:33.162Z,65.03
2019-02-19T02:05:33.179Z,64.46
2019-02-19T02:06:33.166Z,65.03
2019-02-19T02:07:33.226Z,64.75
2019-02-19T02:08:33.183Z,65.70
2019-02-19T02:09:33.211Z,65.51
2019-02-19T02:10:33.193Z,65.41
2019-02-19T02:11:33.199Z,65.19
2019-02-19T02:12:33.210Z,65.13
2019-02-19T02:13:33.215Z,65.22
2019-02-19T02:14:33.206Z,65.22
2019-02-19T02:15:33.207Z,65.19
2019-02-19T02:16:33.219Z,65.22
2019-02-19T02:17:33.218Z,65.41
2019-02-19T02:18:33.273Z,65.03
2019-02-19T02:19:33.237Z,65.00
2019-02-19T02:20:33.285Z,65.13
2019-02-19T02:21:33.238Z,65.76
2019-02-19T02:22:33.226Z,64.94
2019-02-19T02:23:33.261Z,65.47
2019-02-19T02:24:33.255Z,65.80
2019-02-19T02:25:33.250Z,65.76
2019-02-19T02:26:33.305Z,65.13
2019-02-19T02:27:33.245Z,65.32
2019-02-19T02:28:33.253Z,65.41
2019-02-19T02:29:33.254Z,65.38
2019-02-19T02:30:33.279Z,65.22
2019-02-19T02:31:33.272Z,65.28
2019-02-19T02:32:33.296Z,65.13
2019-02-19T02:33:33.274Z,65.51
2019-02-19T02:34:33.283Z,65.22
2019-02-19T02:35:33.283Z,65.57
2019-02-19T02:36:33.310Z,65.19
2019-02-19T02:37:33.313Z,65.51
2019-02-19T02:38:33.327Z,65.28
2019-02-19T02:39:33.304Z,65.28
2019-02-19T02:40:33.294Z,65.09
2019-02-19T02:41:33.328Z,65.13
2019-02-19T02:42:33.322Z,65.28
2019-02-19T02:43:33.309Z,65.41
2019-02-19T02:44:33.349Z,65.41
2019-02-19T02:45:33.329Z,65.41
2019-02-19T02:46:33.370Z,65.19
2019-02-19T02:47:33.326Z,65.09
2019-02-19T02:48:33.332Z,65.00
2019-02-19T02:49:33.355Z,65.28
2019-02-19T02:50:33.334Z,65.22
2019-02-19T02:51:33.401Z,65.51
2019-02-19T02:52:33.376Z,65.00
2019-02-19T02:53:33.355Z,65.13
2019-02-19T02:54:33.363Z,65.03
2019-02-19T02:55:33.375Z,64.75
2019-02-19T02:56:33.395Z,64.84
2019-02-19T02:57:33.388Z,64.84
2019-02-19T02:58:33.407Z,65.03
2019-02-19T02:59:33.384Z,64.94
2019-02-19T03:00:33.389Z,64.62
2019-02-19T03:01:33.427Z,64.62
2019-02-19T03:02:33.387Z,64.72
2019-02-19T03:03:33.393Z,64.56
2019-02-19T03:04:33.406Z,64.81
2019-02-19T03:05:33.413Z,64.84
2019-02-19T03:06:33.413Z,65.03
2019-02-19T03:07:33.436Z,65.38
2019-02-19T03:08:33.413Z,65.22
2019-02-19T03:09:33.421Z,65.28
2019-02-19T03:10:33.418Z,65.09
2019-02-19T03:11:33.435Z,64.90
2019-02-19T03:12:33.462Z,65.19
2019-02-19T03:13:33.445Z,65.47
2019-02-19T03:14:33.436Z,65.09
2019-02-19T03:15:33.429Z,65.47
2019-02-19T03:16:33.471Z,65.47
2019-02-19T03:17:33.437Z,65.28
2019-02-19T03:18:33.463Z,65.38
2019-02-19T03:19:33.487Z,65.57
2019-02-19T03:20:33.448Z,65.19
2019-02-19T03:21:33.453Z,65.19
2019-02-19T03:22:33.516Z,65.57
2019-02-19T03:23:33.485Z,65.38
2019-02-19T03:24:33.484Z,65.38
2019-02-19T03:25:33.490Z,65.09
2019-02-19T03:26:33.489Z,65.38
2019-02-19T03:27:33.493Z,65.38
2019-02-19T03:28:33.544Z,65.19
2019-02-19T03:29:33.486Z,65.28
2019-02-19T03:30:33.507Z,65.09
2019-02-19T03:31:33.490Z,65.28
2019-02-19T03:32:33.525Z,65.19
2019-02-19T03:33:33.506Z,65.19
2019-02-19T03:34:33.542Z,65.09
2019-02-19T03:35:33.517Z,65.09
2019-02-19T03:36:33.531Z,65.38
2019-02-19T03:37:33.539Z,65.38
2019-02-19T03:38:33.532Z,65.19
2019-02-19T03:39:33.560Z,65.19
2019-02-19T03:40:33.567Z,65.38
2019-02-19T03:41:33.541Z,65.38
2019-02-19T03:42:33.542Z,65.09
2019-02-19T03:43:33.549Z,65.28
2019-02-19T03:44:33.558Z,65.19
2019-02-19T03:45:33.565Z,64.90
2019-02-19T03:46:33.561Z,65.38
2019-02-19T03:47:33.550Z,65.09
2019-02-19T03:48:33.568Z,65.38
2019-02-19T03:49:33.586Z,65.38
2019-02-19T03:50:33.590Z,65.19
2019-02-19T03:51:33.593Z,65.38
2019-02-19T03:52:33.580Z,65.28
2019-02-19T03:53:33.578Z,65.57
2019-02-19T03:54:33.583Z,65.19
2019-02-19T03:55:33.621Z,65.19
2019-02-19T03:56:33.586Z,65.38
2019-02-19T03:57:33.591Z,65.19
2019-02-19T03:58:33.631Z,64.90
2019-02-19T03:59:33.611Z,65.28
2019-02-19T04:00:33.641Z,65.28
2019-02-19T04:01:33.616Z,65.19
2019-02-19T04:02:33.623Z,65.00
2019-02-19T04:03:33.639Z,64.90
2019-02-19T04:04:33.623Z,65.09
2019-02-19T04:05:33.658Z,65.28
2019-02-19T04:06:33.657Z,65.28
2019-02-19T04:07:33.625Z,65.19
2019-02-19T04:08:33.683Z,65.09
2019-02-19T04:09:33.648Z,65.19
2019-02-19T04:10:33.645Z,65.09
2019-02-19T04:11:33.690Z,65.00
2019-02-19T04:12:33.675Z,65.38
2019-02-19T04:13:33.672Z,65.28
2019-02-19T04:14:33.651Z,65.09
2019-02-19T04:15:33.667Z,65.57
2019-02-19T04:16:33.671Z,65.28
2019-02-19T04:17:33.699Z,65.38
2019-02-19T04:18:33.688Z,65.00
2019-02-19T04:19:33.683Z,65.38
2019-02-19T04:20:33.688Z,65.19
2019-02-19T04:21:33.693Z,65.47
2019-02-19T04:22:33.715Z,65.19
2019-02-19T04:23:33.696Z,65.57
2019-02-19T04:24:33.705Z,65.76
2019-02-19T04:25:33.730Z,65.76
2019-02-19T04:26:33.703Z,66.05
2019-02-19T04:27:33.748Z,65.86
2019-02-19T04:28:33.702Z,66.14
2019-02-19T04:29:33.725Z,65.76
2019-02-19T04:30:33.713Z,65.95
2019-02-19T04:31:33.722Z,66.05
2019-02-19T04:32:33.730Z,65.86
2019-02-19T04:33:33.776Z,66.05
2019-02-19T04:34:33.735Z,65.86
2019-02-19T04:35:33.776Z,65.86
2019-02-19T04:36:33.747Z,65.95
2019-02-19T04:37:33.781Z,65.95
2019-02-19T04:38:33.768Z,66.14
2019-02-19T04:39:33.753Z,65.95
2019-02-19T04:40:33.771Z,66.05
2019-02-19T04:41:33.771Z,66.05
2019-02-19T04:42:33.785Z,66.14
2019-02-19T04:43:33.811Z,65.47
2019-02-19T04:44:33.829Z,65.76
2019-02-19T04:45:33.778Z,65.95
2019-02-19T04:46:33.784Z,66.05
2019-02-19T04:47:33.780Z,66.05
2019-02-19T04:48:33.827Z,65.86
2019-02-19T04:49:33.799Z,65.95
2019-02-19T04:50:33.792Z,66.14
2019-02-19T04:51:33.804Z,65.67
2019-02-19T04:52:33.805Z,65.95
2019-02-19T04:53:33.852Z,66.05
2019-02-19T04:54:33.825Z,66.05
2019-02-19T04:55:33.826Z,65.76
2019-02-19T04:56:33.817Z,66.05
2019-02-19T04:57:33.822Z,66.05
2019-02-19T04:58:33.839Z,66.05
2019-02-19T04:59:33.840Z,66.24
2019-02-19T05:00:33.821Z,66.05
2019-02-19T05:01:33.833Z,65.86
2019-02-19T05:02:33.867Z,65.76
2019-02-19T05:03:33.901Z,65.95
2019-02-19T05:04:33.868Z,65.76
2019-02-19T05:05:33.857Z,65.86
2019-02-19T05:06:33.856Z,66.05
2019-02-19T05:07:33.855Z,65.76
2019-02-19T05:08:33.866Z,65.57
2019-02-19T05:09:33.916Z,66.14
2019-02-19T05:10:33.869Z,65.86
2019-02-19T05:11:33.897Z,65.76
2019-02-19T05:12:33.893Z,65.76
2019-02-19T05:13:33.866Z,66.14
2019-02-19T05:14:33.909Z,65.57
2019-02-19T05:15:33.882Z,65.76
2019-02-19T05:16:40.522Z,65.86
2019-02-19T05:17:33.893Z,65.95
2019-02-19T05:18:33.897Z,65.95
2019-02-19T05:19:33.964Z,65.95
2019-02-19T05:20:34.027Z,65.67
2019-02-19T05:21:33.914Z,65.86
2019-02-19T05:22:33.923Z,65.95
2019-02-19T05:23:33.938Z,66.05
2019-02-19T05:24:33.929Z,65.86
2019-02-19T05:25:33.950Z,65.76
2019-02-19T05:26:33.937Z,66.05
2019-02-19T05:27:33.936Z,65.95
2019-02-19T05:28:33.949Z,65.76
2019-02-19T05:29:33.972Z,66.05
2019-02-19T05:30:34.010Z,66.05
2019-02-19T05:31:33.954Z,65.95
2019-02-19T05:32:33.973Z,66.05
2019-02-19T05:33:33.966Z,65.95
2019-02-19T05:34:33.943Z,65.86
2019-02-19T05:35:34.175Z,65.86
2019-02-19T05:36:33.981Z,66.14
2019-02-19T05:37:33.977Z,65.86
2019-02-19T05:38:33.972Z,66.05
2019-02-19T05:39:34.012Z,66.05
2019-02-19T05:40:33.991Z,65.67
2019-02-19T05:41:33.995Z,65.86
2019-02-19T05:42:33.985Z,65.67
2019-02-19T05:43:34.027Z,65.95
2019-02-19T05:44:34.058Z,65.76
2019-02-19T05:45:33.998Z,65.86
2019-02-19T05:46:33.988Z,66.05
2019-02-19T05:47:34.038Z,66.24
2019-02-19T05:48:34.004Z,65.76
2019-02-19T05:49:34.003Z,65.86
2019-02-19T05:50:34.013Z,66.05
2019-02-19T05:51:34.022Z,65.86
2019-02-19T05:52:34.080Z,66.14
2019-02-19T05:53:34.028Z,65.76
2019-02-19T05:54:34.055Z,65.76
2019-02-19T05:55:34.039Z,66.61
2019-02-19T05:56:34.050Z,66.05
2019-02-19T05:57:34.057Z,65.67
2019-02-19T05:58:34.114Z,65.86
2019-02-19T05:59:34.037Z,65.76
2019-02-19T06:00:34.056Z,66.14
2019-02-19T06:01:34.081Z,66.05
2019-02-19T06:02:34.045Z,66.33
2019-02-19T06:03:34.071Z,66.05
2019-02-19T06:04:34.085Z,65.95
2019-02-19T06:05:34.092Z,66.14
2019-02-19T06:06:34.075Z,65.86
2019-02-19T06:07:34.078Z,65.86
2019-02-19T06:08:34.125Z,65.86
2019-02-19T06:09:34.074Z,66.05
2019-02-19T06:10:34.082Z,65.86
2019-02-19T06:11:34.193Z,65.95
2019-02-19T06:12:34.131Z,65.86
2019-02-19T06:13:34.199Z,65.47
2019-02-19T06:14:34.101Z,65.95
2019-02-19T06:15:34.120Z,65.57
2019-02-19T06:16:34.102Z,65.47
2019-02-19T06:17:34.131Z,65.76
2019-02-19T06:18:34.135Z,65.67
2019-02-19T06:19:34.159Z,65.76
2019-02-19T06:20:34.122Z,65.67
2019-02-19T06:21:34.160Z,65.95
2019-02-19T06:22:34.131Z,65.86
2019-02-19T06:23:34.140Z,65.57
2019-02-19T06:24:34.156Z,65.86
2019-02-19T06:25:34.167Z,65.80
2019-02-19T06:26:34.179Z,65.09
2019-02-19T06:27:34.161Z,65.47
2019-02-19T06:28:34.157Z,64.90
2019-02-19T06:29:35.095Z,65.13
2019-02-19T06:30:34.167Z,65.89
2019-02-19T06:31:34.186Z,65.19
2019-02-19T06:32:34.172Z,65.47
2019-02-19T06:33:34.190Z,65.47
2019-02-19T06:34:34.173Z,65.51
2019-02-19T06:35:34.247Z,65.03
2019-02-19T06:36:34.234Z,65.51
2019-02-19T06:37:34.192Z,65.41
2019-02-19T06:38:34.212Z,64.84
2019-02-19T06:39:34.195Z,64.94
2019-02-19T06:40:34.231Z,64.56
2019-02-19T06:41:34.239Z,64.65
2019-02-19T06:42:34.244Z,64.56
2019-02-19T06:43:34.202Z,64.37
2019-02-19T06:44:34.208Z,64.27
2019-02-19T06:45:34.213Z,64.37
2019-02-19T06:46:34.221Z,64.27
2019-02-19T06:47:34.263Z,64.08
2019-02-19T06:48:34.242Z,64.27
2019-02-19T06:49:34.243Z,64.46
2019-02-19T06:50:34.471Z,64.37
2019-02-19T06:51:34.263Z,64.46
2019-02-19T06:52:34.252Z,64.56
2019-02-19T06:53:34.330Z,64.46
2019-02-19T06:54:34.272Z,64.56
2019-02-19T06:55:34.274Z,64.37
2019-02-19T06:56:34.338Z,64.37
2019-02-19T06:57:34.263Z,64.56
2019-02-19T06:58:34.358Z,64.46
2019-02-19T06:59:34.282Z,63.89
2019-02-19T07:00:34.271Z,63.79
2019-02-19T07:01:34.413Z,63.51
2019-02-19T07:02:34.330Z,63.51
2019-02-19T07:03:34.306Z,63.79
2019-02-19T07:04:34.371Z,64.02
2019-02-19T07:05:34.306Z,63.83
2019-02-19T07:06:34.300Z,63.70
2019-02-19T07:07:34.307Z,64.02
2019-02-19T07:08:34.384Z,63.54
2019-02-19T07:09:34.342Z,64.11
2019-02-19T07:10:34.337Z,63.92
2019-02-19T07:11:34.332Z,63.83
2019-02-19T07:12:34.372Z,64.02
2019-02-19T07:13:34.375Z,63.54
2019-02-19T07:14:34.358Z,63.54
2019-02-19T07:15:34.367Z,63.54
2019-02-19T07:16:34.369Z,63.64
2019-02-19T07:17:34.376Z,63.45
2019-02-19T07:18:34.395Z,63.64
2019-02-19T07:19:34.388Z,63.17
2019-02-19T07:20:34.357Z,63.17
2019-02-19T07:21:34.359Z,63.17
2019-02-19T07:22:34.368Z,63.07
2019-02-19T07:23:34.407Z,63.17
2019-02-19T07:24:34.400Z,62.97
2019-02-19T07:25:34.391Z,62.69
2019-02-19T07:26:34.404Z,62.78
2019-02-19T07:27:34.412Z,62.88
2019-02-19T07:28:34.406Z,62.97
2019-02-19T07:29:34.436Z,62.34
2019-02-19T07:30:34.416Z,62.34
2019-02-19T07:31:34.460Z,62.91
2019-02-19T07:32:34.492Z,62.15
2019-02-19T07:33:34.425Z,62.62
2019-02-19T07:34:34.452Z,62.15
2019-02-19T07:35:34.424Z,62.34
2019-02-19T07:36:34.444Z,62.43
2019-02-19T07:37:34.435Z,62.81
2019-02-19T07:38:34.546Z,62.81
2019-02-19T07:39:34.479Z,62.43
2019-02-19T07:40:34.487Z,62.34
2019-02-19T07:41:34.463Z,62.24
2019-02-19T07:42:34.460Z,61.58
2019-02-19T07:43:34.481Z,62.05
2019-02-19T07:44:34.475Z,61.96
2019-02-19T07:45:34.491Z,62.05
2019-02-19T07:46:34.490Z,62.05
2019-02-19T07:47:34.506Z,61.86
2019-02-19T07:48:34.537Z,61.96
2019-02-19T07:49:34.515Z,61.58
2019-02-19T07:50:34.525Z,61.29
2019-02-19T07:51:34.500Z,61.96
2019-02-19T07:52:34.527Z,61.96
2019-02-19T07:53:34.535Z,62.05
2019-02-19T07:54:34.553Z,61.29
2019-02-19T07:55:34.563Z,61.86
2019-02-19T07:56:34.520Z,61.32
2019-02-19T07:57:34.527Z,61.42
2019-02-19T07:58:34.533Z,61.70
2019-02-19T07:59:34.542Z,61.70
2019-02-19T08:00:34.561Z,61.61
2019-02-19T08:01:34.590Z,61.42
2019-02-19T08:02:34.549Z,61.61
2019-02-19T08:03:34.668Z,61.61
2019-02-19T08:04:34.570Z,61.80
2019-02-19T08:05:34.600Z,61.51
2019-02-19T08:06:34.621Z,61.51
2019-02-19T08:07:34.579Z,61.70
2019-02-19T08:08:34.590Z,61.42
2019-02-19T08:09:34.593Z,61.80
2019-02-19T08:10:34.601Z,61.70
2019-02-19T08:11:34.612Z,61.80
2019-02-19T08:12:34.620Z,61.04
2019-02-19T08:13:34.617Z,61.32
2019-02-19T08:14:34.617Z,61.13
2019-02-19T08:15:34.626Z,61.22
2019-02-19T08:16:34.697Z,61.22
2019-02-19T08:17:34.656Z,61.32
2019-02-19T08:18:34.643Z,60.27
2019-02-19T08:19:34.653Z,61.32
2019-02-19T08:20:34.674Z,60.37
2019-02-19T08:21:34.712Z,60.27
2019-02-19T08:22:34.682Z,60.46
2019-02-19T08:23:34.728Z,60.27
2019-02-19T08:24:34.712Z,60.49
2019-02-19T08:25:34.680Z,60.69
2019-02-19T08:26:34.689Z,60.59
2019-02-19T08:27:34.687Z,60.40
2019-02-19T08:28:34.701Z,60.59
2019-02-19T08:29:34.688Z,60.59
2019-02-19T08:30:34.686Z,60.78
2019-02-19T08:31:34.796Z,60.49
2019-02-19T08:32:34.708Z,60.02
2019-02-19T08:33:34.741Z,59.92
2019-02-19T08:34:34.723Z,60.02
2019-02-19T08:35:34.726Z,59.83
2019-02-19T08:36:34.738Z,60.30
2019-02-19T08:37:34.760Z,60.11
2019-02-19T08:38:34.798Z,60.11
2019-02-19T08:39:34.759Z,59.86
2019-02-19T08:40:34.746Z,59.67
2019-02-19T08:41:34.764Z,60.05
2019-02-19T08:42:34.789Z,59.67
2019-02-19T08:43:34.813Z,59.48
2019-02-19T08:44:34.809Z,59.48
2019-02-19T08:45:34.807Z,59.38
2019-02-19T08:46:34.792Z,59.48
2019-02-19T08:47:42.231Z,59.38
2019-02-19T08:48:34.798Z,59.38
2019-02-19T08:49:34.834Z,58.81
2019-02-19T08:50:34.803Z,59.03
2019-02-19T08:51:34.989Z,59.22
2019-02-19T08:52:34.856Z,58.36
2019-02-19T08:53:34.831Z,58.46
2019-02-19T08:54:34.848Z,58.26
2019-02-19T08:55:34.988Z,58.26
2019-02-19T08:56:34.858Z,58.55
2019-02-19T08:57:34.852Z,58.46
2019-02-19T08:58:34.849Z,58.46
2019-02-19T08:59:34.973Z,58.26
2019-02-19T09:00:34.872Z,58.36
2019-02-19T09:01:34.879Z,58.55
2019-02-19T09:02:34.877Z,58.46
2019-02-19T09:03:34.901Z,58.55
2019-02-19T09:04:34.883Z,58.55
2019-02-19T09:05:34.924Z,58.46
2019-02-19T09:06:34.903Z,57.98
2019-02-19T09:07:34.908Z,58.46
2019-02-19T09:08:34.913Z,58.26
2019-02-19T09:09:34.918Z,58.46
2019-02-19T09:10:34.958Z,58.17
2019-02-19T09:11:34.928Z,58.17
2019-02-19T09:12:34.942Z,58.01
2019-02-19T09:13:34.946Z,58.01
2019-02-19T09:14:34.956Z,58.11
2019-02-19T09:15:34.983Z,58.20
2019-02-19T09:16:34.961Z,58.20
2019-02-19T09:17:34.978Z,58.20
2019-02-19T09:18:34.970Z,58.29
2019-02-19T09:19:35.033Z,57.82
2019-02-19T09:20:36.848Z,57.43
2019-02-19T09:21:34.984Z,57.43
2019-02-19T09:22:34.984Z,58.01
2019-02-19T09:23:35.004Z,58.11
2019-02-19T09:24:35.025Z,57.43
2019-02-19T09:25:35.019Z,57.53
2019-02-19T09:26:35.039Z,57.06
2019-02-19T09:27:35.031Z,56.96
2019-02-19T09:28:35.023Z,57.43
2019-02-19T09:29:35.033Z,57.34
2019-02-19T09:30:35.050Z,57.43
2019-02-19T09:31:35.085Z,57.63
2019-02-19T09:32:35.090Z,57.56
2019-02-19T09:33:35.103Z,57.53
2019-02-19T09:34:35.076Z,57.53
2019-02-19T09:35:35.091Z,57.37
2019-02-19T09:36:35.096Z,57.46
2019-02-19T09:37:35.112Z,57.28
2019-02-19T09:38:35.094Z,57.46
2019-02-19T09:39:35.107Z,57.43
2019-02-19T09:40:35.146Z,57.24
2019-02-19T09:41:35.145Z,57.43
2019-02-19T09:42:35.153Z,57.53
2019-02-19T09:43:35.706Z,57.53
2019-02-19T09:44:35.125Z,57.28
2019-02-19T09:45:35.159Z,57.28
2019-02-19T09:46:35.137Z,57.75
2019-02-19T09:47:35.157Z,57.24
2019-02-19T09:48:35.189Z,57.28
2019-02-19T09:49:35.175Z,57.46
2019-02-19T09:50:35.200Z,57.37
2019-02-19T09:51:35.194Z,57.46
2019-02-19T09:52:35.197Z,57.24
2019-02-19T09:53:35.231Z,57.65
2019-02-19T09:54:35.189Z,57.37
2019-02-19T09:55:35.223Z,57.28
2019-02-19T09:56:35.219Z,57.56
2019-02-19T09:57:35.214Z,57.85
2019-02-19T09:58:35.215Z,57.37
2019-02-19T09:59:35.226Z,57.46
2019-02-19T10:00:35.295Z,57.28
2019-02-19T10:01:35.250Z,57.82
2019-02-19T10:02:35.249Z,57.72
2019-02-19T10:03:35.261Z,58.51
2019-02-19T10:04:35.275Z,57.92
2019-02-19T10:05:35.274Z,58.33
2019-02-19T10:06:35.311Z,57.92
2019-02-19T10:07:35.291Z,58.14
2019-02-19T10:08:35.337Z,58.42
2019-02-19T10:09:35.300Z,58.33
2019-02-19T10:10:35.295Z,58.14
2019-02-19T10:11:35.368Z,58.58
2019-02-19T10:12:35.322Z,59.25
2019-02-19T10:13:35.323Z,59.06
2019-02-19T10:14:35.348Z,59.28
2019-02-19T10:15:35.332Z,59.34
2019-02-19T10:16:41.401Z,59.09
2019-02-19T10:17:35.515Z,58.51
2019-02-19T10:18:35.369Z,58.33
2019-02-19T10:19:35.367Z,58.14
2019-02-19T10:20:35.370Z,58.42
2019-02-19T10:21:35.418Z,58.23
2019-02-19T10:22:35.446Z,58.04
2019-02-19T10:23:35.394Z,57.94
2019-02-19T10:24:35.405Z,58.23
2019-02-19T10:25:35.419Z,58.04
2019-02-19T10:26:35.471Z,58.04
2019-02-19T10:27:35.432Z,57.94
2019-02-19T10:28:35.430Z,58.14
2019-02-19T10:29:35.427Z,58.23
2019-02-19T10:30:35.421Z,57.94
2019-02-19T10:31:35.454Z,58.14
2019-02-19T10:32:35.489Z,57.85
2019-02-19T10:33:35.460Z,58.14
2019-02-19T10:34:35.445Z,58.07
2019-02-19T10:35:35.479Z,57.40
2019-02-19T10:36:35.546Z,57.31
2019-02-19T10:37:35.540Z,57.40
2019-02-19T10:38:35.478Z,57.59
2019-02-19T10:39:35.494Z,57.50
2019-02-19T10:40:35.493Z,57.59
2019-02-19T10:41:35.511Z,57.59
2019-02-19T10:42:35.533Z,57.78
2019-02-19T10:43:35.591Z,57.50
2019-02-19T10:44:35.530Z,57.56
2019-02-19T10:45:35.524Z,57.94
2019-02-19T10:46:35.559Z,58.26
2019-02-19T10:47:35.955Z,58.51
2019-02-19T10:48:35.553Z,58.51
2019-02-19T10:49:35.582Z,58.42
2019-02-19T10:50:35.587Z,58.51
2019-02-19T10:51:35.576Z,58.51
2019-02-19T10:52:35.570Z,59.38
2019-02-19T10:53:35.660Z,59.19
2019-02-19T10:54:35.686Z,59.66
2019-02-19T10:55:35.600Z,59.47
2019-02-19T10:56:35.606Z,59.38
2019-02-19T10:57:35.645Z,59.28
2019-02-19T10:58:35.617Z,59.28
2019-02-19T10:59:35.654Z,59.56
2019-02-19T11:00:35.687Z,59.66
2019-02-19T11:01:35.626Z,59.28
2019-02-19T11:02:35.637Z,59.66
2019-02-19T11:03:35.641Z,59.76
2019-02-19T11:04:35.667Z,59.76
2019-02-19T11:05:35.669Z,59.85
2019-02-19T11:06:35.679Z,59.76
2019-02-19T11:07:35.669Z,59.85
2019-02-19T11:08:35.679Z,59.66
2019-02-19T11:09:35.681Z,59.76
2019-02-19T11:10:35.720Z,59.56
2019-02-19T11:11:35.704Z,59.28
2019-02-19T11:12:35.754Z,59.38
2019-02-19T11:13:35.727Z,59.38
2019-02-19T11:14:36.050Z,59.28
2019-02-19T11:15:35.775Z,59.09
2019-02-19T11:16:35.790Z,59.38
2019-02-19T11:17:35.753Z,58.73
2019-02-19T11:18:35.762Z,59.22
2019-02-19T11:19:35.766Z,59.47
2019-02-19T11:20:35.762Z,58.99
2019-02-19T11:21:35.774Z,59.12
2019-02-19T11:22:35.806Z,59.31
2019-02-19T11:23:35.789Z,59.59
2019-02-19T11:24:35.788Z,59.41
2019-02-19T11:25:35.799Z,58.16
2019-02-19T11:26:35.817Z,58.45
2019-02-19T11:27:35.814Z,58.16
2019-02-19T11:28:35.828Z,58.64
2019-02-19T11:29:35.829Z,58.07
2019-02-19T11:30:35.845Z,58.36
2019-02-19T11:31:35.890Z,58.54
2019-02-19T11:32:35.846Z,57.87
2019-02-19T11:33:35.844Z,58.16
2019-02-19T11:34:35.855Z,58.19
2019-02-19T11:35:35.894Z,58.29
2019-02-19T11:36:35.884Z,57.43
2019-02-19T11:37:37.371Z,57.81
2019-02-19T11:38:35.889Z,57.53
2019-02-19T11:39:35.892Z,57.53
2019-02-19T11:40:35.910Z,57.33
2019-02-19T11:41:35.925Z,57.71
2019-02-19T11:42:35.962Z,57.53
2019-02-19T11:43:35.929Z,56.85
2019-02-19T11:44:35.924Z,57.14
2019-02-19T11:45:35.963Z,56.47
2019-02-19T11:46:35.944Z,56.38
2019-02-19T11:47:35.967Z,56.18
2019-02-19T11:48:37.189Z,56.47
2019-02-19T11:49:35.964Z,56.85
2019-02-19T11:50:35.981Z,56.76
2019-02-19T11:51:36.086Z,56.57
2019-02-19T11:52:35.991Z,56.67
2019-02-19T11:53:36.082Z,56.76
2019-02-19T11:54:36.039Z,56.76
2019-02-19T11:55:36.016Z,56.47
2019-02-19T11:56:36.016Z,56.38
2019-02-19T11:57:36.022Z,56.67
2019-02-19T11:58:36.085Z,56.38
2019-02-19T11:59:37.499Z,56.28
2019-02-19T12:00:36.059Z,56.85
2019-02-19T12:01:36.062Z,56.95
2019-02-19T12:02:36.059Z,57.04
2019-02-19T12:03:36.063Z,56.95
2019-02-19T12:04:36.095Z,56.82
2019-02-19T12:05:36.112Z,57.14
2019-02-19T12:06:36.093Z,57.50
2019-02-19T12:07:36.102Z,57.59
2019-02-19T12:08:38.984Z,57.31
2019-02-19T12:09:36.127Z,57.62
2019-02-19T12:10:36.183Z,57.62
2019-02-19T12:11:36.127Z,57.59
2019-02-19T12:12:36.140Z,57.53
2019-02-19T12:13:36.249Z,57.53
2019-02-19T12:14:36.146Z,57.62
2019-02-19T12:15:36.283Z,57.04
2019-02-19T12:16:36.205Z,57.14
2019-02-19T12:17:36.163Z,57.43
2019-02-19T12:18:36.184Z,57.62
2019-02-19T12:19:36.188Z,57.53
2019-02-19T12:20:36.195Z,57.53
2019-02-19T12:21:36.413Z,57.81
2019-02-19T12:22:36.377Z,57.43
2019-02-19T12:23:36.345Z,57.14
2019-02-19T12:24:36.456Z,56.95
2019-02-19T12:25:36.762Z,57.43
2019-02-19T12:26:36.393Z,57.43
2019-02-19T12:27:36.246Z,56.57
2019-02-19T12:28:36.243Z,56.47
2019-02-19T12:29:36.261Z,56.40
2019-02-19T12:30:36.272Z,56.57
2019-02-19T12:31:36.322Z,56.18
2019-02-19T12:32:36.297Z,56.38
2019-02-19T12:33:36.281Z,56.60
2019-02-19T12:34:36.299Z,56.40
2019-02-19T12:35:36.300Z,56.21
2019-02-19T12:36:36.312Z,56.60
2019-02-19T12:37:36.360Z,56.69
2019-02-19T12:38:36.325Z,56.40
2019-02-19T12:39:36.331Z,56.28
2019-02-19T12:40:36.350Z,56.40
2019-02-19T12:41:37.355Z,56.76
2019-02-19T12:42:37.110Z,56.47
2019-02-19T12:43:36.438Z,56.47
2019-02-19T12:44:36.506Z,56.76
2019-02-19T12:45:36.420Z,56.76
2019-02-19T12:46:36.377Z,56.38
2019-02-19T12:47:36.410Z,56.67
2019-02-19T12:48:36.432Z,56.47
2019-02-19T12:49:36.470Z,56.28
2019-02-19T12:50:36.404Z,56.76
2019-02-19T12:51:36.436Z,56.57
2019-02-19T12:52:36.438Z,56.38